Time;durP1;ratioP1;P1;durP2;ratioP2;P2;SDS_P1;SDS_P2;PMS_P1;PMS_P2;Temp;Humidity;BMP_temperature;BMP_pressure;BME280_temperature;BME280_humidity;BME280_pressure;Samples;Min_cycle;Max_cycle;Signal;HPM_P1;HPM_P2
2022/07/07 00:01:45;;;;;;;;;;;28.60;93.60;;;;;;5114686;27;19928;-79
2022/07/07 00:04:13;;;;;;;;;;;28.60;93.60;;;;;;5098954;27;19962;-79
2022/07/07 00:06:40;;;;;;;;;;;28.60;93.60;;;;;;5098682;27;19931;-79
2022/07/07 00:09:08;;;;;;;;;;;28.60;93.60;;;;;;5099054;27;19934;-79
2022/07/07 00:11:35;;;;;;;;;;;28.60;93.60;;;;;;5081155;27;19928;-79
2022/07/07 00:14:06;;;;;;;;;;;28.50;93.60;;;;;;5115360;27;19968;-79
2022/07/07 00:16:34;;;;;;;;;;;28.50;93.60;;;;;;5115698;27;19968;-78
2022/07/07 00:19:02;;;;;;;;;;;28.50;93.60;;;;;;5115096;27;19923;-79
2022/07/07 00:21:29;;;;;;;;;;;28.50;93.60;;;;;;5115194;27;19947;-79
2022/07/07 00:23:57;;;;;;;;;;;28.50;93.50;;;;;;5081791;27;19934;-78
2022/07/07 00:26:24;;;;;;;;;;;28.50;93.60;;;;;;5114927;27;20428;-79
2022/07/07 00:28:52;;;;;;;;;;;28.40;93.50;;;;;;5098314;27;20337;-79
2022/07/07 00:31:19;;;;;;;;;;;28.40;93.50;;;;;;5097968;27;20050;-79
2022/07/07 00:33:46;;;;;;;;;;;28.40;93.60;;;;;;5094841;27;19927;-79
2022/07/07 00:36:14;;;;;;;;;;;28.40;93.50;;;;;;5094463;28;19930;-79
2022/07/07 00:38:41;;;;;;;;;;;28.40;93.60;;;;;;5077786;28;19924;-79
2022/07/07 00:41:09;;;;;;;;;;;28.40;93.60;;;;;;5112654;28;20323;-79
2022/07/07 00:43:40;;;;;;;;;;;28.40;93.50;;;;;;5077417;28;19924;-79
2022/07/07 00:46:07;;;;;;;;;;;28.40;93.40;;;;;;5077559;28;19924;-78
2022/07/07 00:48:36;;;;;;;;;;;28.30;93.30;;;;;;5094316;28;19928;-79
2022/07/07 00:51:04;;;;;;;;;;;28.30;93.30;;;;;;5077407;28;20267;-78
2022/07/07 00:53:32;;;;;;;;;;;28.30;93.30;;;;;;5076733;28;19928;-79
2022/07/07 00:55:59;;;;;;;;;;;28.20;93.30;;;;;;5075483;28;20284;-79
2022/07/07 00:58:27;;;;;;;;;;;28.20;93.50;;;;;;5077574;28;20037;-78
2022/07/07 01:00:54;;;;;;;;;;;28.10;93.30;;;;;;5093722;28;19928;-78
2022/07/07 01:03:21;;;;;;;;;;;28.10;93.30;;;;;;5093377;28;19976;-79
2022/07/07 01:05:49;;;;;;;;;;;28.20;93.30;;;;;;5112117;28;19928;-78
2022/07/07 01:08:17;;;;;;;;;;;28.10;93.30;;;;;;5076789;28;19951;-78
2022/07/07 01:10:44;;;;;;;;;;;28.10;93.30;;;;;;5094012;28;20030;-78
2022/07/07 01:13:12;;;;;;;;;;;28.00;93.20;;;;;;5094039;28;19928;-79
2022/07/07 01:15:39;;;;;;;;;;;28.00;93.30;;;;;;5077044;28;19942;-78
2022/07/07 01:18:07;;;;;;;;;;;28.00;93.20;;;;;;5093522;28;19950;-78
2022/07/07 01:20:35;;;;;;;;;;;28.00;93.20;;;;;;5077078;28;19931;-78
2022/07/07 01:23:02;;;;;;;;;;;28.00;93.20;;;;;;5077050;28;19923;-78
2022/07/07 01:25:30;;;;;;;;;;;28.00;93.10;;;;;;5093263;28;20026;-78
2022/07/07 01:27:57;;;;;;;;;;;27.90;93.00;;;;;;5093928;28;20022;-78
2022/07/07 01:30:24;;;;;;;;;;;27.90;93.00;;;;;;5111662;28;19934;-78
2022/07/07 01:32:52;;;;;;;;;;;27.80;92.90;;;;;;5105203;27;19923;-78
2022/07/07 01:35:19;;;;;;;;;;;27.90;92.80;;;;;;5097059;27;20099;-78
2022/07/07 01:37:46;;;;;;;;;;;27.80;92.70;;;;;;5114232;27;20010;-78
2022/07/07 01:40:14;;;;;;;;;;;27.80;92.60;;;;;;5113823;27;19968;-78
2022/07/07 01:42:41;;;;;;;;;;;27.80;92.60;;;;;;5131959;27;19970;-79
2022/07/07 01:45:09;;;;;;;;;;;27.80;92.40;;;;;;5096936;27;19928;-78
2022/07/07 01:47:36;;;;;;;;;;;27.70;92.30;;;;;;5130865;27;19929;-78
2022/07/07 01:50:04;;;;;;;;;;;27.70;92.40;;;;;;5095897;27;20635;-78
2022/07/07 01:52:32;;;;;;;;;;;27.70;92.10;;;;;;5113172;27;19923;-79
2022/07/07 01:54:59;;;;;;;;;;;27.70;92.10;;;;;;5113832;27;19927;-78
2022/07/07 01:57:26;;;;;;;;;;;27.60;92.00;;;;;;5113688;27;19923;-78
2022/07/07 01:59:54;;;;;;;;;;;27.60;92.00;;;;;;5113996;27;20068;-78
2022/07/07 02:02:21;;;;;;;;;;;27.60;92.00;;;;;;5113814;27;20046;-78
2022/07/07 02:04:49;;;;;;;;;;;27.50;92.00;;;;;;5096297;27;19970;-78
2022/07/07 02:07:16;;;;;;;;;;;27.50;91.90;;;;;;5079507;27;19927;-79
2022/07/07 02:09:44;;;;;;;;;;;27.40;91.90;;;;;;5096494;28;19927;-79
2022/07/07 02:12:11;;;;;;;;;;;27.40;91.80;;;;;;5096799;28;19934;-78
2022/07/07 02:14:38;;;;;;;;;;;27.40;91.80;;;;;;5096769;28;19923;-79
2022/07/07 02:17:06;;;;;;;;;;;27.40;91.70;;;;;;5096563;28;19924;-79
2022/07/07 02:19:33;;;;;;;;;;;27.30;91.80;;;;;;5095932;28;19923;-78
2022/07/07 02:22:00;;;;;;;;;;;27.30;91.80;;;;;;5113051;28;19934;-78
2022/07/07 02:24:28;;;;;;;;;;;27.30;91.80;;;;;;5096401;28;19923;-78
2022/07/07 02:26:55;;;;;;;;;;;27.30;91.90;;;;;;5096460;28;19928;-78
2022/07/07 02:29:23;;;;;;;;;;;27.30;92.10;;;;;;5096333;28;20373;-78
2022/07/07 02:31:50;;;;;;;;;;;27.30;92.30;;;;;;5130249;28;19939;-78
2022/07/07 02:34:18;;;;;;;;;;;27.30;92.30;;;;;;5096179;27;19930;-78
2022/07/07 02:36:45;;;;;;;;;;;27.20;92.40;;;;;;5131993;28;20408;-78
2022/07/07 02:39:12;;;;;;;;;;;27.30;92.50;;;;;;5113241;28;19927;-78
2022/07/07 02:41:40;;;;;;;;;;;27.30;92.60;;;;;;5113400;28;20034;-78
2022/07/07 02:44:07;;;;;;;;;;;27.30;92.80;;;;;;5096740;28;19928;-79
2022/07/07 02:46:35;;;;;;;;;;;27.30;93.10;;;;;;5113371;28;20026;-78
2022/07/07 02:49:02;;;;;;;;;;;27.20;93.20;;;;;;5095948;27;19934;-78
2022/07/07 02:51:30;;;;;;;;;;;27.20;93.50;;;;;;5130430;28;19939;-79
2022/07/07 02:53:57;;;;;;;;;;;27.20;93.90;;;;;;5096170;28;19944;-78
2022/07/07 02:56:25;;;;;;;;;;;27.20;94.30;;;;;;5078533;28;19932;-78
2022/07/07 02:58:52;;;;;;;;;;;27.20;94.50;;;;;;5096412;28;19977;-78
2022/07/07 03:01:19;;;;;;;;;;;27.20;94.70;;;;;;5090629;28;20017;-78
2022/07/07 03:03:47;;;;;;;;;;;27.20;94.90;;;;;;5088132;28;19962;-78
2022/07/07 03:06:15;;;;;;;;;;;27.20;95.00;;;;;;5110684;28;19950;-79
2022/07/07 03:08:43;;;;;;;;;;;27.20;95.20;;;;;;5075635;28;19928;-77
2022/07/07 03:11:10;;;;;;;;;;;27.20;95.50;;;;;;5075583;28;20381;-78
2022/07/07 03:13:37;;;;;;;;;;;27.20;95.60;;;;;;5074041;28;19935;-78
2022/07/07 03:16:06;;;;;;;;;;;27.20;95.80;;;;;;5112772;28;19934;-78
2022/07/07 03:18:33;;;;;;;;;;;27.20;95.90;;;;;;5095407;27;19924;-79
2022/07/07 03:21:01;;;;;;;;;;;27.30;96.00;;;;;;5116566;27;20242;-78
2022/07/07 03:23:28;;;;;;;;;;;27.30;96.10;;;;;;5099616;27;20301;-78
2022/07/07 03:25:56;;;;;;;;;;;27.30;96.20;;;;;;5099770;27;19978;-78
2022/07/07 03:30:22;;;;;;;5.03;2.88;;;27.30;96.20;;;;;;5068253;27;20477;-68
2022/07/07 03:32:49;;;;;;;5.53;3.53;;;27.30;96.40;;;;;;5047764;28;20631;-69
2022/07/07 03:35:17;;;;;;;6.15;2.83;;;27.30;96.50;;;;;;5047668;28;20057;-68
2022/07/07 03:37:44;;;;;;;4.72;2.92;;;27.30;96.50;;;;;;5046684;28;20080;-68
2022/07/07 03:40:12;;;;;;;7.50;3.03;;;27.30;96.60;;;;;;5047515;28;20076;-68
2022/07/07 03:42:40;;;;;;;9.60;3.15;;;27.30;96.80;;;;;;5047595;28;20505;-68
2022/07/07 03:45:08;;;;;;;10.05;3.40;;;27.30;97.00;;;;;;5063001;28;20466;-68
2022/07/07 03:47:36;;;;;;;10.35;3.97;;;27.40;97.20;;;;;;5046211;28;20106;-68
2022/07/07 03:50:04;;;;;;;12.85;4.70;;;27.40;97.30;;;;;;5047203;28;20132;-68
2022/07/07 03:52:31;;;;;;;6.68;2.95;;;27.40;97.30;;;;;;5046638;28;20052;-69
2022/07/07 03:54:59;;;;;;;10.32;3.58;;;27.50;97.40;;;;;;5029940;28;20049;-68
2022/07/07 03:57:27;;;;;;;8.00;3.17;;;27.50;97.40;;;;;;5047349;28;20099;-69
2022/07/07 03:59:54;;;;;;;10.25;3.88;;;27.60;97.50;;;;;;5045815;28;20073;-68
2022/07/07 04:02:22;;;;;;;5.45;2.80;;;27.70;97.50;;;;;;5046053;28;20049;-67
2022/07/07 04:04:50;;;;;;;7.90;3.17;;;27.70;97.40;;;;;;5045918;28;20053;-69
2022/07/07 04:07:17;;;;;;;5.90;3.53;;;27.80;97.40;;;;;;5029709;28;20067;-68
2022/07/07 04:09:45;;;;;;;5.45;3.13;;;27.90;97.30;;;;;;5029470;28;20041;-68
2022/07/07 04:12:13;;;;;;;7.38;3.28;;;28.00;97.30;;;;;;5046848;28;20071;-68
2022/07/07 04:14:40;;;;;;;6.43;3.50;;;28.10;97.20;;;;;;5046767;28;20514;-70
2022/07/07 04:17:09;;;;;;;12.48;4.28;;;28.20;97.20;;;;;;5028985;28;20053;-68
2022/07/07 04:19:39;;;;;;;7.50;3.28;;;28.20;97.10;;;;;;5047029;28;20057;-67
2022/07/07 04:22:07;;;;;;;6.63;3.47;;;28.30;97.10;;;;;;5045519;28;20463;-68
2022/07/07 04:24:35;;;;;;;5.07;2.92;;;28.40;97.10;;;;;;5045610;28;20048;-70
2022/07/07 04:27:03;;;;;;;9.20;3.70;;;28.50;97.00;;;;;;5046902;28;20503;-70
2022/07/07 04:29:31;;;;;;;7.15;2.95;;;28.50;97.00;;;;;;5045026;28;20083;-71
2022/07/07 04:31:59;;;;;;;5.00;3.05;;;28.60;97.00;;;;;;5012270;28;20608;-69
2022/07/07 04:34:26;;;;;;;7.80;3.00;;;28.70;96.90;;;;;;5045642;28;20041;-68
2022/07/07 04:36:54;;;;;;;11.73;3.30;;;28.80;96.90;;;;;;5045503;28;20053;-69
2022/07/07 04:39:22;;;;;;;7.97;3.65;;;28.90;96.90;;;;;;5044155;28;20102;-68
2022/07/07 04:41:50;;;;;;;6.65;4.07;;;28.90;96.80;;;;;;5031708;28;20112;-69
2022/07/07 04:44:19;;;;;;;8.13;3.50;;;29.10;96.80;;;;;;5033431;28;20042;-68
2022/07/07 04:46:46;;;;;;;7.55;3.67;;;29.20;96.80;;;;;;5031817;28;20049;-68
2022/07/07 04:49:14;;;;;;;11.25;4.60;;;29.30;96.70;;;;;;5030063;28;20457;-68
2022/07/07 04:51:45;;;;;;;19.25;4.28;;;29.20;96.60;;;;;;5031603;28;20044;-68
2022/07/07 04:54:13;;;;;;;12.70;3.50;;;29.20;96.70;;;;;;5031435;28;20049;-70
2022/07/07 04:56:41;;;;;;;6.75;3.42;;;29.10;96.80;;;;;;5031573;28;20072;-68
2022/07/07 04:59:09;;;;;;;9.50;4.50;;;29.10;96.90;;;;;;5031961;28;20414;-70
2022/07/07 05:01:36;;;;;;;11.55;3.40;;;29.10;97.00;;;;;;5031706;28;20682;-68
2022/07/07 05:04:04;;;;;;;4.20;3.00;;;29.20;97.10;;;;;;5032646;28;20041;-68
2022/07/07 05:06:31;;;;;;;10.60;3.88;;;29.20;96.90;;;;;;5031311;28;20080;-69
2022/07/07 05:08:59;;;;;;;7.03;3.67;;;29.30;96.90;;;;;;5031449;28;20502;-68
2022/07/07 05:11:27;;;;;;;7.45;3.67;;;29.50;96.80;;;;;;5032721;28;20033;-67
2022/07/07 05:13:54;;;;;;;5.85;3.90;;;29.70;96.70;;;;;;5032511;28;20049;-69
2022/07/07 05:16:22;;;;;;;9.65;3.10;;;29.80;96.40;;;;;;5032618;28;20160;-71
2022/07/07 05:18:49;;;;;;;12.35;3.72;;;30.00;96.30;;;;;;5032536;28;20107;-71
2022/07/07 05:21:17;;;;;;;11.10;5.22;;;30.10;96.20;;;;;;5031320;28;20049;-72
2022/07/07 05:23:48;;;;;;;6.57;3.25;;;30.20;96.30;;;;;;5032334;28;20049;-68
2022/07/07 05:26:19;;;;;;;9.40;3.97;;;30.30;96.30;;;;;;5031746;28;20052;-67
2022/07/07 05:28:46;;;;;;;4.15;3.15;;;30.50;96.40;;;;;;5030991;28;20063;-68
2022/07/07 05:31:15;;;;;;;10.02;3.95;;;30.50;96.50;;;;;;5031207;28;20832;-70
2022/07/07 05:33:42;;;;;;;7.40;3.28;;;30.70;96.60;;;;;;5032183;28;20045;-69
2022/07/07 05:36:10;;;;;;;9.20;2.65;;;30.80;96.60;;;;;;5030743;28;20469;-71
2022/07/07 05:38:38;;;;;;;5.40;3.05;;;31.00;96.70;;;;;;5032463;28;20041;-67
2022/07/07 05:41:06;;;;;;;7.88;3.05;;;31.10;96.50;;;;;;5032104;28;20041;-69
2022/07/07 05:43:33;;;;;;;8.02;2.92;;;31.20;96.40;;;;;;5047328;28;20805;-68
2022/07/07 05:46:01;;;;;;;5.40;3.30;;;31.30;96.40;;;;;;5027934;28;20060;-68
2022/07/07 05:48:28;;;;;;;11.82;2.83;;;31.40;96.40;;;;;;5030559;28;20057;-67
2022/07/07 05:50:56;;;;;;;10.68;3.47;;;31.50;96.30;;;;;;5030767;28;20068;-70
2022/07/07 05:53:24;;;;;;;11.27;3.72;;;31.60;96.20;;;;;;5030028;28;20046;-69
2022/07/07 05:55:51;;;;;;;8.05;3.00;;;31.70;96.00;;;;;;5031587;28;20103;-69
2022/07/07 05:58:19;;;;;;;8.73;3.47;;;31.90;96.00;;;;;;5030761;28;20084;-67
2022/07/07 06:00:47;;;;;;;14.00;4.18;;;32.00;95.70;;;;;;5031710;28;20107;-70
2022/07/07 06:03:14;;;;;;;7.28;2.90;;;32.10;95.60;;;;;;5031513;28;20487;-69
2022/07/07 06:05:43;;;;;;;10.45;3.33;;;32.10;95.50;;;;;;5014380;28;20168;-67
2022/07/07 06:08:10;;;;;;;8.82;3.67;;;31.90;95.50;;;;;;5030316;28;20433;-69
2022/07/07 06:10:38;;;;;;;9.40;3.08;;;32.10;95.50;;;;;;5031482;28;20069;-69
2022/07/07 06:13:06;;;;;;;5.97;2.90;;;32.10;95.30;;;;;;5031439;28;20073;-67
2022/07/07 06:15:33;;;;;;;7.22;3.40;;;32.10;95.10;;;;;;5030185;28;20457;-68
2022/07/07 06:18:05;;;;;;;6.50;3.95;;;32.10;95.10;;;;;;5031369;28;20041;-68
2022/07/07 06:20:34;;;;;;;11.13;4.22;;;32.10;95.10;;;;;;5030530;28;20140;-68
2022/07/07 06:23:02;;;;;;;7.07;2.67;;;32.30;95.00;;;;;;5046577;28;20049;-67
2022/07/07 06:25:30;;;;;;;11.23;3.78;;;32.50;94.80;;;;;;5013776;28;20057;-68
2022/07/07 06:27:58;;;;;;;11.95;3.35;;;32.70;94.60;;;;;;5029497;28;20096;-69
2022/07/07 06:30:26;;;;;;;10.27;3.00;;;33.00;94.30;;;;;;5029840;28;20049;-68
2022/07/07 06:32:54;;;;;;;9.85;3.20;;;33.10;93.80;;;;;;5046603;28;20088;-68
2022/07/07 06:35:24;;;;;;;8.45;3.47;;;33.10;93.80;;;;;;5046575;28;20067;-69
2022/07/07 06:37:57;;;;;;;5.47;3.28;;;33.20;93.70;;;;;;5029617;28;20081;-71
2022/07/07 06:40:25;;;;;;;8.50;2.72;;;33.30;93.60;;;;;;5031032;28;20057;-68
2022/07/07 06:42:52;;;;;;;4.72;2.83;;;33.40;93.40;;;;;;5013306;28;20050;-68
2022/07/07 06:45:25;;;;;;;8.77;3.35;;;33.50;93.00;;;;;;5027434;28;20068;-68
2022/07/07 06:47:53;;;;;;;8.23;3.78;;;33.60;92.80;;;;;;5029621;28;20052;-68
2022/07/07 06:50:24;;;;;;;7.60;3.15;;;33.60;92.70;;;;;;5031006;28;20431;-69
2022/07/07 06:52:51;;;;;;;10.25;3.78;;;33.50;91.70;;;;;;5029568;28;20041;-69
2022/07/07 06:55:19;;;;;;;5.30;2.38;;;33.50;92.20;;;;;;5030865;28;20041;-68
2022/07/07 06:57:47;;;;;;;6.07;3.38;;;33.50;92.10;;;;;;5029707;28;20046;-68
2022/07/07 07:00:15;;;;;;;5.93;2.55;;;33.60;91.80;;;;;;5029230;28;20053;-67
2022/07/07 07:02:43;;;;;;;8.15;3.00;;;33.70;91.80;;;;;;5030450;28;20133;-68
2022/07/07 07:05:11;;;;;;;12.80;2.63;;;33.80;91.40;;;;;;5029244;28;20038;-68
2022/07/07 07:07:39;;;;;;;6.03;2.42;;;33.90;91.10;;;;;;5029303;28;20045;-68
2022/07/07 07:10:08;;;;;;;7.32;2.40;;;34.10;90.40;;;;;;5029054;28;20867;-67
2022/07/07 07:12:36;;;;;;;3.72;2.70;;;34.10;90.30;;;;;;5029664;28;20056;-68
2022/07/07 07:15:06;;;;;;;5.40;2.75;;;34.30;90.50;;;;;;5045652;28;20060;-70
2022/07/07 07:17:33;;;;;;;9.35;3.60;;;34.30;90.60;;;;;;5030287;28;20045;-68
2022/07/07 07:20:01;;;;;;;7.38;2.40;;;34.30;90.80;;;;;;5012677;28;20140;-67
2022/07/07 07:22:41;;;;;;;6.15;2.78;;;34.40;90.70;;;;;;5012818;28;20512;-68
2022/07/07 07:25:09;;;;;;;5.07;2.88;;;34.50;90.70;;;;;;5029598;28;20041;-68
2022/07/07 07:27:37;;;;;;;15.75;3.35;;;34.40;90.10;;;;;;5045638;28;20064;-69
2022/07/07 07:30:05;;;;;;;6.47;2.30;;;34.10;90.00;;;;;;5029539;28;20089;-69
2022/07/07 07:32:32;;;;;;;8.40;3.20;;;34.30;90.10;;;;;;5029076;28;20084;-72
2022/07/07 07:35:00;;;;;;;5.38;3.00;;;34.30;90.30;;;;;;5028946;28;20156;-69
2022/07/07 07:37:28;;;;;;;4.65;2.95;;;34.30;90.10;;;;;;5030516;28;20049;-69
2022/07/07 07:39:56;;;;;;;7.10;2.60;;;34.40;90.10;;;;;;5025206;28;20041;-69
2022/07/07 07:42:23;;;;;;;7.55;3.17;;;34.50;89.80;;;;;;5010695;28;20057;-68
2022/07/07 07:47:41;;;;;;;6.13;2.78;;;34.50;88.30;;;;;;5009679;28;20108;-66
2022/07/07 07:50:12;;;;;;;6.75;3.10;;;34.50;88.20;;;;;;5009091;28;20054;-67
2022/07/07 07:52:41;;;;;;;5.03;3.40;;;34.50;87.80;;;;;;5025564;28;20050;-68
2022/07/07 07:55:10;;;;;;;3.75;2.83;;;34.40;88.00;;;;;;5010571;28;20042;-66
2022/07/07 07:57:38;;;;;;;8.82;2.90;;;34.40;88.90;;;;;;5010402;28;20046;-66
2022/07/07 08:00:08;;;;;;;6.78;3.00;;;34.50;89.30;;;;;;5025323;28;20053;-66
2022/07/07 08:02:40;;;;;;;7.45;3.30;;;34.60;88.50;;;;;;5010657;28;20176;-65
2022/07/07 08:05:10;;;;;;;6.18;3.20;;;34.60;87.80;;;;;;5010582;28;20056;-67
2022/07/07 08:07:39;;;;;;;6.97;3.65;;;34.70;88.10;;;;;;5010420;28;20046;-65
2022/07/07 08:10:08;;;;;;;6.03;3.63;;;34.70;87.80;;;;;;5008639;28;20034;-67
2022/07/07 08:12:36;;;;;;;10.50;3.55;;;34.80;86.80;;;;;;5010478;28;20046;-66
2022/07/07 08:15:04;;;;;;;7.25;3.58;;;34.90;86.90;;;;;;5010009;28;20054;-66
2022/07/07 08:17:32;;;;;;;16.30;6.05;;;34.90;86.90;;;;;;5013987;28;20049;-67
2022/07/07 08:20:01;;;;;;;5.88;3.47;;;34.80;85.10;;;;;;5028690;28;20065;-66
2022/07/07 08:22:28;;;;;;;4.63;3.13;;;34.90;84.90;;;;;;5012462;28;20403;-69
2022/07/07 08:24:56;;;;;;;5.45;3.38;;;34.80;84.50;;;;;;5013512;28;20144;-66
2022/07/07 08:27:24;;;;;;;5.00;2.92;;;34.80;84.30;;;;;;5029253;28;20049;-67
2022/07/07 08:29:52;;;;;;;6.10;3.20;;;34.80;83.10;;;;;;5014390;28;20082;-67
2022/07/07 08:32:19;;;;;;;5.75;3.25;;;34.80;83.50;;;;;;5012512;28;20052;-67
2022/07/07 08:34:47;;;;;;;7.57;3.17;;;34.90;82.80;;;;;;4996035;28;20496;-66
2022/07/07 08:37:15;;;;;;;5.35;3.28;;;35.00;80.60;;;;;;5028732;28;20042;-66
2022/07/07 08:39:43;;;;;;;5.60;3.08;;;34.90;80.60;;;;;;5012528;28;20053;-67
2022/07/07 08:42:11;;;;;;;8.73;3.80;;;34.90;80.30;;;;;;5013287;28;20038;-66
2022/07/07 08:44:39;;;;;;;6.00;3.38;;;34.90;80.90;;;;;;5012212;28;20507;-66
2022/07/07 08:47:07;;;;;;;9.57;3.80;;;35.00;80.50;;;;;;5013477;28;20038;-67
2022/07/07 08:49:53;;;;;;;5.47;3.50;;;35.10;77.60;;;;;;4998212;28;20092;-67
2022/07/07 08:52:20;;;;;;;4.78;3.42;;;35.10;77.40;;;;;;5012039;28;20496;-68
2022/07/07 08:54:49;;;;;;;5.68;3.80;;;35.00;77.60;;;;;;5013613;28;20046;-66
2022/07/07 08:57:18;;;;;;;6.43;3.17;;;35.10;77.60;;;;;;5012166;28;20042;-66
2022/07/07 08:59:45;;;;;;;5.63;3.63;;;35.10;77.30;;;;;;5011939;28;20470;-67
2022/07/07 09:02:13;;;;;;;4.05;3.10;;;35.00;75.30;;;;;;5012987;28;20124;-67
2022/07/07 09:04:41;;;;;;;5.88;3.15;;;34.90;72.60;;;;;;5013105;28;20814;-67
2022/07/07 09:07:08;;;;;;;6.38;3.25;;;34.90;73.30;;;;;;5011917;28;20084;-66
2022/07/07 09:09:36;;;;;;;4.32;3.40;;;34.80;73.40;;;;;;4995731;28;20058;-69
2022/07/07 09:12:06;;;;;;;5.75;3.58;;;34.60;73.00;;;;;;5028101;28;20507;-67
2022/07/07 09:14:38;;;;;;;7.45;3.30;;;34.50;73.60;;;;;;5013008;28;20399;-66
2022/07/07 09:17:26;;;;;;;4.80;3.55;;;34.60;74.10;;;;;;5028220;28;20034;-67
2022/07/07 09:20:05;;;;;;;5.32;3.70;;;34.70;73.80;;;;;;5008220;28;20058;-67
2022/07/07 09:22:45;;;;;;;9.38;3.63;;;34.90;73.20;;;;;;5012923;28;20466;-68
2022/07/07 09:25:14;;;;;;;6.25;3.13;;;34.80;72.20;;;;;;5027729;28;20137;-66
2022/07/07 09:27:52;;;;;;;6.53;3.30;;;34.80;71.90;;;;;;5018383;28;20052;-67
2022/07/07 09:30:37;;;;;;;6.03;3.38;;;34.80;71.90;;;;;;5014841;28;20402;-66
2022/07/07 09:33:12;;;;;;;3.78;2.95;;;34.70;73.40;;;;;;5032509;28;20045;-68
2022/07/07 09:38:31;;;;;;;5.18;3.13;;;34.80;70.70;;;;;;5032341;28;20053;-66
2022/07/07 09:40:59;;;;;;;5.88;3.25;;;35.00;71.30;;;;;;5032154;28;20129;-67
2022/07/07 09:43:28;;;;;;;4.18;3.28;;;34.80;71.40;;;;;;5030702;28;20503;-66
2022/07/07 09:46:05;;;;;;;5.13;2.75;;;34.80;72.60;;;;;;5031828;28;20140;-71
2022/07/07 09:48:34;;;;;;;6.72;3.30;;;34.80;72.30;;;;;;5031095;28;20076;-67
2022/07/07 09:51:14;;;;;;;4.05;2.45;;;34.80;70.70;;;;;;5032087;28;20398;-66
2022/07/07 09:54:05;;;;;;;4.38;2.97;;;34.70;70.70;;;;;;5030781;28;20100;-70
2022/07/07 09:56:35;;;;;;;5.20;2.92;;;34.80;70.50;;;;;;5032088;28;20049;-68
2022/07/07 09:59:14;;;;;;;5.68;2.67;;;35.00;71.30;;;;;;5047533;28;20100;-66
2022/07/07 10:01:45;;;;;;;4.60;2.70;;;35.10;68.60;;;;;;5047370;28;20095;-66
2022/07/07 10:04:16;;;;;;;4.72;2.40;;;35.20;68.10;;;;;;5030452;28;20057;-67
2022/07/07 10:06:45;;;;;;;5.78;2.70;;;35.20;67.00;;;;;;5031128;28;20160;-67
2022/07/07 10:09:20;;;;;;;5.63;2.47;;;35.30;68.40;;;;;;5013414;28;20183;-67
2022/07/07 10:11:53;;;;;;;3.67;2.35;;;35.40;68.10;;;;;;5030746;28;20044;-66
2022/07/07 10:14:27;;;;;;;3.13;2.60;;;35.50;67.20;;;;;;5031112;28;20049;-66
2022/07/07 10:16:55;;;;;;;4.35;2.90;;;35.40;66.20;;;;;;5028847;28;20042;-66
2022/07/07 10:19:25;;;;;;;6.10;3.28;;;35.20;67.50;;;;;;5013436;28;20045;-66
2022/07/07 10:21:55;;;;;;;5.68;2.40;;;35.30;68.40;;;;;;5029147;28;20495;-67
2022/07/07 10:24:27;;;;;;;3.97;2.50;;;35.40;67.40;;;;;;5030819;28;20045;-66
2022/07/07 10:27:00;;;;;;;6.60;2.72;;;35.30;66.30;;;;;;5030534;28;20080;-65
2022/07/07 10:29:45;;;;;;;12.63;3.45;;;35.00;66.90;;;;;;5029138;28;20053;-68
2022/07/07 10:32:28;;;;;;;;;;;35.20;67.50;;;;;;5029783;28;20090;-68
2022/07/07 10:34:58;;;;;;;3.47;1.95;;;35.20;66.50;;;;;;5029189;28;19988;-66
2022/07/07 10:37:27;;;;;;;5.85;2.72;;;35.10;66.00;;;;;;5030296;28;20055;-68
2022/07/07 10:39:56;;;;;;;4.15;2.50;;;35.20;65.70;;;;;;5045654;28;20095;-66
2022/07/07 10:42:39;;;;;;;3.53;1.85;;;35.20;64.80;;;;;;5029211;28;20057;-65
2022/07/07 10:45:08;;;;;;;3.42;2.17;;;35.10;63.00;;;;;;5029595;28;20042;-66
2022/07/07 10:47:37;;;;;;;3.63;2.67;;;35.00;62.30;;;;;;5029444;28;20111;-66
2022/07/07 10:50:24;;;;;;;3.58;2.20;;;35.00;64.00;;;;;;5028905;28;20037;-69
2022/07/07 10:52:52;;;;;;;3.95;2.45;;;35.10;64.10;;;;;;5012617;28;20530;-67
2022/07/07 10:55:55;;;;;;;7.55;2.70;;;35.20;65.00;;;;;;5043114;28;20470;-69
2022/07/07 10:58:57;;;;;;;3.58;2.60;;;35.30;66.10;;;;;;5030124;28;20045;-67
2022/07/07 11:01:29;;;;;;;5.35;1.85;;;35.30;64.50;;;;;;5029060;28;20055;-70
2022/07/07 11:03:57;;;;;;;3.58;2.53;;;35.10;62.60;;;;;;5029705;28;20056;-69
2022/07/07 11:06:25;;;;;;;4.00;1.98;;;35.10;64.50;;;;;;5028862;28;20048;-66
2022/07/07 11:09:01;;;;;;;3.90;2.05;;;35.00;63.50;;;;;;5028747;28;20462;-66
2022/07/07 11:11:29;;;;;;;4.65;2.35;;;35.00;63.50;;;;;;5029450;28;20434;-66
2022/07/07 11:14:09;;;;;;;3.22;1.98;;;35.00;63.90;;;;;;5026962;28;20132;-66
2022/07/07 11:16:39;;;;;;;5.32;2.42;;;35.10;64.10;;;;;;5012962;28;20061;-69
2022/07/07 11:19:07;;;;;;;2.92;2.00;;;35.20;63.80;;;;;;5030860;28;20077;-71
2022/07/07 11:21:39;;;;;;;3.72;2.03;;;35.40;63.90;;;;;;5013383;28;20057;-66
2022/07/07 11:24:19;;;;;;;5.32;2.35;;;35.50;63.30;;;;;;5029141;28;20499;-69
2022/07/07 11:26:59;;;;;;;3.60;2.00;;;35.50;63.30;;;;;;5030388;28;20037;-66
2022/07/07 11:29:27;;;;;;;4.13;2.13;;;35.40;61.90;;;;;;5030116;28;20064;-68
2022/07/07 11:32:04;;;;;;;3.35;1.90;;;35.40;62.20;;;;;;5012677;28;20523;-66
2022/07/07 11:34:48;;;;;;;3.20;1.85;;;35.20;61.90;;;;;;5030167;28;20034;-67
2022/07/07 11:37:21;;;;;;;4.05;2.40;;;35.30;62.60;;;;;;5029175;28;20076;-67
2022/07/07 11:39:49;;;;;;;3.58;1.92;;;35.30;62.30;;;;;;5030363;28;20042;-66
2022/07/07 11:42:17;;;;;;;4.07;2.05;;;35.20;62.50;;;;;;5029056;28;20491;-67
2022/07/07 11:44:45;;;;;;;3.33;2.05;;;35.30;62.30;;;;;;5030003;28;20140;-68
2022/07/07 11:47:13;;;;;;;4.13;2.10;;;35.30;61.40;;;;;;5012525;28;20438;-67
2022/07/07 11:49:41;;;;;;;6.57;2.10;;;35.20;61.40;;;;;;5045692;28;20479;-67
2022/07/07 11:52:13;;;;;;;3.58;1.95;;;35.20;61.60;;;;;;5032839;28;20116;-66
2022/07/07 11:54:46;;;;;;;6.00;2.10;;;35.30;61.90;;;;;;5034260;28;20069;-67
2022/07/07 11:57:26;;;;;;;4.97;1.98;;;35.20;61.50;;;;;;5032835;28;20049;-68
2022/07/07 11:59:53;;;;;;;3.63;1.70;;;35.20;61.30;;;;;;5032912;28;20387;-67
2022/07/07 12:02:21;;;;;;;2.92;1.85;;;35.20;61.10;;;;;;5033280;28;20046;-67
2022/07/07 12:04:53;;;;;;;7.80;2.10;;;34.90;60.80;;;;;;5034213;28;20368;-67
2022/07/07 12:07:21;;;;;;;2.90;1.88;;;34.80;61.00;;;;;;5049325;28;20553;-66
2022/07/07 12:09:49;;;;;;;4.10;2.00;;;34.90;61.70;;;;;;5032536;28;20391;-69
2022/07/07 12:12:18;;;;;;;3.78;2.22;;;34.80;62.00;;;;;;5033216;28;20056;-70
2022/07/07 12:14:46;;;;;;;2.65;2.20;;;34.70;61.90;;;;;;5011773;28;20109;-67
2022/07/07 12:17:39;;;;;;;4.03;1.83;;;34.80;63.30;;;;;;5014054;28;20089;-70
2022/07/07 12:20:16;;;;;;;2.83;2.00;;;34.70;63.30;;;;;;5012433;28;20041;-67
2022/07/07 12:22:49;;;;;;;5.47;2.20;;;34.60;63.00;;;;;;5014208;28;20128;-66
2022/07/07 12:25:17;;;;;;;3.78;2.30;;;34.60;63.70;;;;;;5028985;28;20062;-66
2022/07/07 12:28:05;;;;;;;4.40;1.95;;;34.60;63.30;;;;;;4998054;28;20053;-69
2022/07/07 12:30:35;;;;;;;4.53;2.20;;;34.80;64.40;;;;;;5028822;28;20137;-71
2022/07/07 12:33:05;;;;;;;2.40;1.75;;;34.70;64.30;;;;;;5029042;28;20096;-67
2022/07/07 12:35:39;;;;;;;2.80;1.77;;;34.80;64.10;;;;;;5022644;28;20049;-67
2022/07/07 12:38:08;;;;;;;2.60;2.00;;;34.70;63.10;;;;;;5033244;28;20041;-68
2022/07/07 12:40:39;;;;;;;5.05;2.25;;;34.70;64.10;;;;;;5009094;28;20049;-66
2022/07/07 12:43:09;;;;;;;4.95;1.92;;;34.60;64.20;;;;;;5031136;28;20046;-68
2022/07/07 12:45:45;;;;;;;2.80;1.80;;;34.50;63.70;;;;;;5030178;28;20037;-66
2022/07/07 12:48:17;;;;;;;2.92;1.85;;;34.50;63.30;;;;;;5028250;28;20140;-67
2022/07/07 12:50:45;;;;;;;2.72;1.88;;;34.50;63.20;;;;;;5026739;28;20450;-69
2022/07/07 12:53:14;;;;;;;3.28;2.00;;;34.50;62.70;;;;;;5034355;28;20053;-68
2022/07/07 12:55:44;;;;;;;4.53;2.10;;;34.40;61.50;;;;;;5031072;28;20041;-69
2022/07/07 12:58:18;;;;;;;3.35;2.10;;;34.40;62.60;;;;;;5031187;28;20104;-66
2022/07/07 13:01:19;;;;;;;3.15;1.80;;;34.40;62.60;;;;;;5031064;28;20045;-67
2022/07/07 13:03:49;;;;;;;2.40;1.70;;;34.30;62.40;;;;;;5029309;28;20063;-67
2022/07/07 13:06:18;;;;;;;3.80;2.05;;;34.20;63.00;;;;;;5028262;28;20509;-66
2022/07/07 13:08:48;;;;;;;4.47;1.98;;;34.20;62.60;;;;;;5029822;28;20483;-67
2022/07/07 13:11:17;;;;;;;4.25;2.35;;;34.30;62.30;;;;;;5028063;28;20132;-67
2022/07/07 13:13:45;;;;;;;3.97;1.83;;;34.40;62.50;;;;;;5030426;28;20041;-67
2022/07/07 13:16:26;;;;;;;4.05;1.95;;;34.40;62.30;;;;;;5028061;28;20041;-67
2022/07/07 13:18:54;;;;;;;4.65;1.98;;;34.30;61.40;;;;;;5045282;28;20077;-67
2022/07/07 13:21:22;;;;;;;5.05;2.35;;;34.10;64.90;;;;;;5022703;28;20045;-67
2022/07/07 13:23:50;;;;;;;4.93;2.25;;;34.10;64.50;;;;;;5029873;28;20041;-67
2022/07/07 13:26:18;;;;;;;7.32;1.98;;;34.00;65.30;;;;;;5020710;28;20054;-66
2022/07/07 13:28:46;;;;;;;4.35;1.98;;;34.00;65.90;;;;;;5028301;28;20045;-66